sensor_id;sensor_type;location;lat;lon;timestamp;temperature;humidity
27823;DHT22;29019;47.630;8.262;2022-10-28T00:03:43;19.40;53.80
27823;DHT22;29019;47.630;8.262;2022-10-28T00:07:44;19.40;53.80
27823;DHT22;29019;47.630;8.262;2022-10-28T00:11:44;19.40;53.90
27823;DHT22;29019;47.630;8.262;2022-10-28T00:15:45;19.40;53.80
27823;DHT22;29019;47.630;8.262;2022-10-28T00:19:45;19.40;53.90
27823;DHT22;29019;47.630;8.262;2022-10-28T00:23:46;19.40;53.80
27823;DHT22;29019;47.630;8.262;2022-10-28T00:27:46;19.40;53.80
27823;DHT22;29019;47.630;8.262;2022-10-28T00:31:46;19.40;53.80
27823;DHT22;29019;47.630;8.262;2022-10-28T00:35:47;19.40;53.90
27823;DHT22;29019;47.630;8.262;2022-10-28T00:39:47;19.40;53.80
27823;DHT22;29019;47.630;8.262;2022-10-28T00:43:55;19.40;53.90
27823;DHT22;29019;47.630;8.262;2022-10-28T00:47:57;19.40;53.90
27823;DHT22;29019;47.630;8.262;2022-10-28T00:52:01;19.40;53.90
27823;DHT22;29019;47.630;8.262;2022-10-28T00:56:03;19.40;53.90
27823;DHT22;29019;47.630;8.262;2022-10-28T01:00:04;19.30;53.80
27823;DHT22;29019;47.630;8.262;2022-10-28T01:04:05;19.30;53.80
27823;DHT22;29019;47.630;8.262;2022-10-28T01:08:06;19.30;53.90
27823;DHT22;29019;47.630;8.262;2022-10-28T01:12:11;19.30;53.90
27823;DHT22;29019;47.630;8.262;2022-10-28T01:16:25;19.30;53.90
27823;DHT22;29019;47.630;8.262;2022-10-28T01:24:56;19.30;53.90
27823;DHT22;29019;47.630;8.262;2022-10-28T01:29:13;19.30;53.90
27823;DHT22;29019;47.630;8.262;2022-10-28T01:33:24;19.30;53.90
27823;DHT22;29019;47.630;8.262;2022-10-28T01:37:31;19.30;53.90
27823;DHT22;29019;47.630;8.262;2022-10-28T01:45:52;19.30;53.90
27823;DHT22;29019;47.630;8.262;2022-10-28T01:50:05;19.30;53.90
27823;DHT22;29019;47.630;8.262;2022-10-28T01:54:07;19.20;53.80
27823;DHT22;29019;47.630;8.262;2022-10-28T01:58:10;19.20;53.80
27823;DHT22;29019;47.630;8.262;2022-10-28T02:02:13;19.30;53.90
27823;DHT22;29019;47.630;8.262;2022-10-28T02:06:14;19.30;53.90
27823;DHT22;29019;47.630;8.262;2022-10-28T02:10:16;19.20;53.80
27823;DHT22;29019;47.630;8.262;2022-10-28T02:22:40;19.20;53.80
27823;DHT22;29019;47.630;8.262;2022-10-28T02:26:51;19.20;53.80
27823;DHT22;29019;47.630;8.262;2022-10-28T02:30:53;19.20;53.80
27823;DHT22;29019;47.630;8.262;2022-10-28T02:34:57;19.20;53.80
27823;DHT22;29019;47.630;8.262;2022-10-28T02:38:58;19.20;53.80
27823;DHT22;29019;47.630;8.262;2022-10-28T02:43:01;19.20;53.90
27823;DHT22;29019;47.630;8.262;2022-10-28T02:47:05;19.20;53.80
27823;DHT22;29019;47.630;8.262;2022-10-28T02:51:08;19.20;53.80
27823;DHT22;29019;47.630;8.262;2022-10-28T02:55:10;19.10;53.70
27823;DHT22;29019;47.630;8.262;2022-10-28T02:59:11;19.20;53.80
27823;DHT22;29019;47.630;8.262;2022-10-28T03:03:12;19.20;53.80
27823;DHT22;29019;47.630;8.262;2022-10-28T03:07:13;19.10;53.70
27823;DHT22;29019;47.630;8.262;2022-10-28T03:11:13;19.20;53.80
27823;DHT22;29019;47.630;8.262;2022-10-28T03:15:13;19.10;53.70
27823;DHT22;29019;47.630;8.262;2022-10-28T03:19:14;19.10;53.60
27823;DHT22;29019;47.630;8.262;2022-10-28T03:23:14;19.10;53.70
27823;DHT22;29019;47.630;8.262;2022-10-28T03:27:15;19.10;53.70
27823;DHT22;29019;47.630;8.262;2022-10-28T03:31:15;19.10;53.70
27823;DHT22;29019;47.630;8.262;2022-10-28T03:35:16;19.10;53.70
27823;DHT22;29019;47.630;8.262;2022-10-28T03:39:16;19.10;53.70
27823;DHT22;29019;47.630;8.262;2022-10-28T03:43:17;19.10;53.70
27823;DHT22;29019;47.630;8.262;2022-10-28T03:47:17;19.10;53.60
27823;DHT22;29019;47.630;8.262;2022-10-28T03:51:18;19.10;53.70
27823;DHT22;29019;47.630;8.262;2022-10-28T03:55:18;19.10;53.60
27823;DHT22;29019;47.630;8.262;2022-10-28T03:59:19;19.10;53.60
27823;DHT22;29019;47.630;8.262;2022-10-28T04:03:20;19.10;53.60
27823;DHT22;29019;47.630;8.262;2022-10-28T04:07:20;19.10;53.60
27823;DHT22;29019;47.630;8.262;2022-10-28T04:11:23;19.10;53.50
27823;DHT22;29019;47.630;8.262;2022-10-28T04:15:23;19.10;53.60
27823;DHT22;29019;47.630;8.262;2022-10-28T04:19:23;19.10;53.60
27823;DHT22;29019;47.630;8.262;2022-10-28T04:23:24;19.10;53.60
27823;DHT22;29019;47.630;8.262;2022-10-28T04:27:24;19.10;53.60
27823;DHT22;29019;47.630;8.262;2022-10-28T04:31:25;19.00;53.60
27823;DHT22;29019;47.630;8.262;2022-10-28T04:35:25;19.10;53.60
27823;DHT22;29019;47.630;8.262;2022-10-28T04:39:26;19.10;53.60
27823;DHT22;29019;47.630;8.262;2022-10-28T04:43:26;19.00;53.50
27823;DHT22;29019;47.630;8.262;2022-10-28T04:47:27;19.00;53.50
27823;DHT22;29019;47.630;8.262;2022-10-28T04:51:27;19.10;53.60
27823;DHT22;29019;47.630;8.262;2022-10-28T04:55:27;19.10;53.60
27823;DHT22;29019;47.630;8.262;2022-10-28T04:59:28;19.10;53.60
27823;DHT22;29019;47.630;8.262;2022-10-28T05:03:28;19.00;53.60
27823;DHT22;29019;47.630;8.262;2022-10-28T05:07:29;19.10;53.60
27823;DHT22;29019;47.630;8.262;2022-10-28T05:11:29;19.00;53.60
27823;DHT22;29019;47.630;8.262;2022-10-28T05:15:30;19.10;53.60
27823;DHT22;29019;47.630;8.262;2022-10-28T05:19:30;19.00;53.50
27823;DHT22;29019;47.630;8.262;2022-10-28T05:23:31;19.00;53.50
27823;DHT22;29019;47.630;8.262;2022-10-28T05:27:31;19.00;53.50
27823;DHT22;29019;47.630;8.262;2022-10-28T05:31:32;19.00;54.00
27823;DHT22;29019;47.630;8.262;2022-10-28T05:35:32;19.00;53.50
27823;DHT22;29019;47.630;8.262;2022-10-28T05:39:32;19.00;53.70
27823;DHT22;29019;47.630;8.262;2022-10-28T05:43:33;19.00;53.60
27823;DHT22;29019;47.630;8.262;2022-10-28T05:47:33;19.00;53.60
27823;DHT22;29019;47.630;8.262;2022-10-28T05:51:34;19.00;53.60
27823;DHT22;29019;47.630;8.262;2022-10-28T05:55:34;19.00;53.50
27823;DHT22;29019;47.630;8.262;2022-10-28T05:59:35;19.00;53.60
27823;DHT22;29019;47.630;8.262;2022-10-28T06:03:35;19.00;53.60
27823;DHT22;29019;47.630;8.262;2022-10-28T06:07:36;19.00;53.60
27823;DHT22;29019;47.630;8.262;2022-10-28T06:11:36;19.00;53.50
27823;DHT22;29019;47.630;8.262;2022-10-28T06:15:37;19.00;53.50
27823;DHT22;29019;47.630;8.262;2022-10-28T06:19:37;19.00;53.50
27823;DHT22;29019;47.630;8.262;2022-10-28T06:23:38;19.00;53.60
27823;DHT22;29019;47.630;8.262;2022-10-28T06:27:38;19.00;53.50
27823;DHT22;29019;47.630;8.262;2022-10-28T06:31:39;18.90;53.60
27823;DHT22;29019;47.630;8.262;2022-10-28T06:35:40;19.00;53.60
27823;DHT22;29019;47.630;8.262;2022-10-28T06:39:40;18.90;53.60
27823;DHT22;29019;47.630;8.262;2022-10-28T06:43:42;18.90;53.50
27823;DHT22;29019;47.630;8.262;2022-10-28T06:47:43;18.90;53.50
27823;DHT22;29019;47.630;8.262;2022-10-28T06:51:43;18.90;53.50
27823;DHT22;29019;47.630;8.262;2022-10-28T06:55:50;18.90;53.60
27823;DHT22;29019;47.630;8.262;2022-10-28T06:59:51;18.90;53.50
27823;DHT22;29019;47.630;8.262;2022-10-28T07:03:51;18.90;53.60
27823;DHT22;29019;47.630;8.262;2022-10-28T07:07:51;18.90;53.50
27823;DHT22;29019;47.630;8.262;2022-10-28T07:11:52;18.90;53.60
27823;DHT22;29019;47.630;8.262;2022-10-28T07:15:54;18.90;53.50
27823;DHT22;29019;47.630;8.262;2022-10-28T07:19:54;18.90;53.60
27823;DHT22;29019;47.630;8.262;2022-10-28T07:23:55;18.90;53.60
27823;DHT22;29019;47.630;8.262;2022-10-28T07:27:56;18.90;53.50
27823;DHT22;29019;47.630;8.262;2022-10-28T07:31:57;18.90;53.60
27823;DHT22;29019;47.630;8.262;2022-10-28T07:35:58;18.90;53.60
27823;DHT22;29019;47.630;8.262;2022-10-28T07:39:58;18.90;53.60
27823;DHT22;29019;47.630;8.262;2022-10-28T07:43:58;18.90;53.60
27823;DHT22;29019;47.630;8.262;2022-10-28T07:47:59;18.90;53.60
27823;DHT22;29019;47.630;8.262;2022-10-28T07:52:00;18.90;53.60
27823;DHT22;29019;47.630;8.262;2022-10-28T07:56:01;18.90;53.60
27823;DHT22;29019;47.630;8.262;2022-10-28T08:00:03;18.90;53.60
27823;DHT22;29019;47.630;8.262;2022-10-28T08:04:04;18.90;53.60
27823;DHT22;29019;47.630;8.262;2022-10-28T08:08:04;18.90;53.60
27823;DHT22;29019;47.630;8.262;2022-10-28T08:12:05;18.90;53.60
27823;DHT22;29019;47.630;8.262;2022-10-28T08:16:06;19.00;53.60
27823;DHT22;29019;47.630;8.262;2022-10-28T08:20:07;18.90;53.60
27823;DHT22;29019;47.630;8.262;2022-10-28T08:24:07;18.90;53.60
27823;DHT22;29019;47.630;8.262;2022-10-28T08:28:08;19.00;53.60
27823;DHT22;29019;47.630;8.262;2022-10-28T08:32:08;19.00;53.60
27823;DHT22;29019;47.630;8.262;2022-10-28T08:36:09;19.00;53.60
27823;DHT22;29019;47.630;8.262;2022-10-28T08:40:10;19.00;53.60
27823;DHT22;29019;47.630;8.262;2022-10-28T08:56:21;19.10;53.40
27823;DHT22;29019;47.630;8.262;2022-10-28T09:00:25;19.10;53.50
27823;DHT22;29019;47.630;8.262;2022-10-28T09:08:28;19.10;53.50
27823;DHT22;29019;47.630;8.262;2022-10-28T09:12:39;19.10;53.50
27823;DHT22;29019;47.630;8.262;2022-10-28T09:16:47;19.00;53.50
27823;DHT22;29019;47.630;8.262;2022-10-28T09:20:50;19.10;53.50
27823;DHT22;29019;47.630;8.262;2022-10-28T09:24:55;19.10;53.50
27823;DHT22;29019;47.630;8.262;2022-10-28T09:33:06;19.10;53.40
27823;DHT22;29019;47.630;8.262;2022-10-28T09:37:16;19.10;53.40
27823;DHT22;29019;47.630;8.262;2022-10-28T09:41:19;19.20;53.40
27823;DHT22;29019;47.630;8.262;2022-10-28T09:45:22;19.20;53.40
27823;DHT22;29019;47.630;8.262;2022-10-28T09:49:26;19.20;53.30
27823;DHT22;29019;47.630;8.262;2022-10-28T09:53:32;19.20;53.30
27823;DHT22;29019;47.630;8.262;2022-10-28T09:57:35;19.20;53.30
27823;DHT22;29019;47.630;8.262;2022-10-28T10:01:36;19.20;53.30
27823;DHT22;29019;47.630;8.262;2022-10-28T10:05:38;19.20;53.30
27823;DHT22;29019;47.630;8.262;2022-10-28T10:09:39;19.20;53.40
27823;DHT22;29019;47.630;8.262;2022-10-28T10:13:40;19.20;53.40
27823;DHT22;29019;47.630;8.262;2022-10-28T10:17:42;19.20;53.40
27823;DHT22;29019;47.630;8.262;2022-10-28T10:25:49;19.20;53.50
27823;DHT22;29019;47.630;8.262;2022-10-28T10:29:53;19.20;53.50
27823;DHT22;29019;47.630;8.262;2022-10-28T10:33:55;19.20;53.50
27823;DHT22;29019;47.630;8.262;2022-10-28T10:37:56;19.30;53.50
27823;DHT22;29019;47.630;8.262;2022-10-28T10:41:58;19.30;53.50
27823;DHT22;29019;47.630;8.262;2022-10-28T10:46:00;19.30;53.50
27823;DHT22;29019;47.630;8.262;2022-10-28T10:50:20;19.30;53.50
27823;DHT22;29019;47.630;8.262;2022-10-28T10:54:21;19.30;53.40
27823;DHT22;29019;47.630;8.262;2022-10-28T10:58:23;19.30;53.40
27823;DHT22;29019;47.630;8.262;2022-10-28T11:06:37;19.40;53.40
27823;DHT22;29019;47.630;8.262;2022-10-28T11:10:38;19.40;53.40
27823;DHT22;29019;47.630;8.262;2022-10-28T11:14:42;19.40;53.40
27823;DHT22;29019;47.630;8.262;2022-10-28T11:18:52;19.40;53.30
27823;DHT22;29019;47.630;8.262;2022-10-28T11:36:14;19.40;53.40
27823;DHT22;29019;47.630;8.262;2022-10-28T11:40:06;19.40;53.40
27823;DHT22;29019;47.630;8.262;2022-10-28T11:44:17;19.40;53.40
27823;DHT22;29019;47.630;8.262;2022-10-28T11:48:30;19.40;53.40
27823;DHT22;29019;47.630;8.262;2022-10-28T12:01:15;19.40;53.40
27823;DHT22;29019;47.630;8.262;2022-10-28T12:05:23;19.40;53.40
27823;DHT22;29019;47.630;8.262;2022-10-28T12:09:35;19.50;53.40
27823;DHT22;29019;47.630;8.262;2022-10-28T12:13:39;19.50;53.40
27823;DHT22;29019;47.630;8.262;2022-10-28T12:17:48;19.50;53.40
27823;DHT22;29019;47.630;8.262;2022-10-28T12:21:56;19.50;53.40
27823;DHT22;29019;47.630;8.262;2022-10-28T12:25:58;19.50;53.30
27823;DHT22;29019;47.630;8.262;2022-10-28T12:30:06;19.50;53.30
27823;DHT22;29019;47.630;8.262;2022-10-28T12:34:09;19.50;53.30
27823;DHT22;29019;47.630;8.262;2022-10-28T12:38:19;19.50;53.30
27823;DHT22;29019;47.630;8.262;2022-10-28T12:42:23;19.50;53.30
27823;DHT22;29019;47.630;8.262;2022-10-28T12:46:28;19.50;53.40
27823;DHT22;29019;47.630;8.262;2022-10-28T12:50:50;19.50;53.40
27823;DHT22;29019;47.630;8.262;2022-10-28T13:03:11;19.60;53.40
27823;DHT22;29019;47.630;8.262;2022-10-28T13:07:23;19.60;53.40
27823;DHT22;29019;47.630;8.262;2022-10-28T13:11:37;19.60;53.40
27823;DHT22;29019;47.630;8.262;2022-10-28T13:28:00;19.60;53.30
27823;DHT22;29019;47.630;8.262;2022-10-28T13:32:01;19.60;53.30
27823;DHT22;29019;47.630;8.262;2022-10-28T13:36:09;19.70;53.30
27823;DHT22;29019;47.630;8.262;2022-10-28T13:40:20;19.70;53.30
27823;DHT22;29019;47.630;8.262;2022-10-28T13:44:23;19.60;53.20
27823;DHT22;29019;47.630;8.262;2022-10-28T13:52:27;19.70;53.20
27823;DHT22;29019;47.630;8.262;2022-10-28T14:04:30;19.70;53.20
27823;DHT22;29019;47.630;8.262;2022-10-28T14:08:32;19.70;53.20
27823;DHT22;29019;47.630;8.262;2022-10-28T14:12:34;19.70;53.20
27823;DHT22;29019;47.630;8.262;2022-10-28T14:16:41;19.70;53.20
27823;DHT22;29019;47.630;8.262;2022-10-28T14:20:52;19.70;53.20
27823;DHT22;29019;47.630;8.262;2022-10-28T14:24:57;19.70;53.20
27823;DHT22;29019;47.630;8.262;2022-10-28T14:28:58;19.70;53.30
27823;DHT22;29019;47.630;8.262;2022-10-28T14:33:01;19.70;53.30
27823;DHT22;29019;47.630;8.262;2022-10-28T14:37:06;19.70;53.20
27823;DHT22;29019;47.630;8.262;2022-10-28T14:41:15;19.70;53.20
27823;DHT22;29019;47.630;8.262;2022-10-28T14:45:25;19.80;53.30
27823;DHT22;29019;47.630;8.262;2022-10-28T14:49:31;19.70;53.20
27823;DHT22;29019;47.630;8.262;2022-10-28T14:53:33;19.80;53.30
27823;DHT22;29019;47.630;8.262;2022-10-28T14:57:34;19.70;53.30
27823;DHT22;29019;47.630;8.262;2022-10-28T15:01:58;19.70;53.20
27823;DHT22;29019;47.630;8.262;2022-10-28T15:05:55;19.80;53.30
27823;DHT22;29019;47.630;8.262;2022-10-28T15:10:00;19.80;53.40
27823;DHT22;29019;47.630;8.262;2022-10-28T15:14:22;19.80;53.30
27823;DHT22;29019;47.630;8.262;2022-10-28T15:18:24;19.70;53.80
27823;DHT22;29019;47.630;8.262;2022-10-28T15:22:26;19.80;53.30
27823;DHT22;29019;47.630;8.262;2022-10-28T15:26:27;19.80;53.30
27823;DHT22;29019;47.630;8.262;2022-10-28T15:30:28;19.80;53.30
27823;DHT22;29019;47.630;8.262;2022-10-28T15:34:28;19.80;53.40
27823;DHT22;29019;47.630;8.262;2022-10-28T15:38:36;19.70;53.40
27823;DHT22;29019;47.630;8.262;2022-10-28T15:42:43;19.70;53.40
27823;DHT22;29019;47.630;8.262;2022-10-28T15:46:44;19.70;53.40
27823;DHT22;29019;47.630;8.262;2022-10-28T15:55:41;19.70;53.40
27823;DHT22;29019;47.630;8.262;2022-10-28T15:59:34;19.70;53.50
27823;DHT22;29019;47.630;8.262;2022-10-28T16:07:43;19.70;53.40
27823;DHT22;29019;47.630;8.262;2022-10-28T16:11:45;19.70;53.50
27823;DHT22;29019;47.630;8.262;2022-10-28T16:15:49;19.80;53.40
27823;DHT22;29019;47.630;8.262;2022-10-28T16:19:53;19.80;53.50
27823;DHT22;29019;47.630;8.262;2022-10-28T16:23:55;19.70;53.50
27823;DHT22;29019;47.630;8.262;2022-10-28T16:27:55;19.80;53.60
27823;DHT22;29019;47.630;8.262;2022-10-28T16:31:56;19.70;53.60
27823;DHT22;29019;47.630;8.262;2022-10-28T16:35:56;19.70;53.50
27823;DHT22;29019;47.630;8.262;2022-10-28T16:39:56;19.80;53.60
27823;DHT22;29019;47.630;8.262;2022-10-28T16:43:57;19.70;53.60
27823;DHT22;29019;47.630;8.262;2022-10-28T16:47:57;19.70;53.60
27823;DHT22;29019;47.630;8.262;2022-10-28T16:51:58;19.70;53.60
27823;DHT22;29019;47.630;8.262;2022-10-28T16:56:02;19.70;53.60
27823;DHT22;29019;47.630;8.262;2022-10-28T17:00:02;19.70;53.60
27823;DHT22;29019;47.630;8.262;2022-10-28T17:04:03;19.70;53.70
27823;DHT22;29019;47.630;8.262;2022-10-28T17:08:03;19.70;53.60
27823;DHT22;29019;47.630;8.262;2022-10-28T17:12:04;19.70;53.70
27823;DHT22;29019;47.630;8.262;2022-10-28T17:16:04;19.70;53.70
27823;DHT22;29019;47.630;8.262;2022-10-28T17:20:05;19.70;53.60
27823;DHT22;29019;47.630;8.262;2022-10-28T17:24:06;19.70;53.60
27823;DHT22;29019;47.630;8.262;2022-10-28T17:28:06;19.70;53.70
27823;DHT22;29019;47.630;8.262;2022-10-28T17:32:07;19.70;53.70
27823;DHT22;29019;47.630;8.262;2022-10-28T17:36:08;19.70;53.70
27823;DHT22;29019;47.630;8.262;2022-10-28T17:40:08;19.70;53.70
27823;DHT22;29019;47.630;8.262;2022-10-28T17:44:10;19.70;53.70
27823;DHT22;29019;47.630;8.262;2022-10-28T17:48:10;19.70;53.80
27823;DHT22;29019;47.630;8.262;2022-10-28T17:52:11;19.70;53.70
27823;DHT22;29019;47.630;8.262;2022-10-28T17:56:11;19.70;53.80
27823;DHT22;29019;47.630;8.262;2022-10-28T18:00:12;19.70;53.80
27823;DHT22;29019;47.630;8.262;2022-10-28T18:04:12;19.70;53.90
27823;DHT22;29019;47.630;8.262;2022-10-28T18:08:13;19.70;53.90
27823;DHT22;29019;47.630;8.262;2022-10-28T18:12:13;19.70;53.90
27823;DHT22;29019;47.630;8.262;2022-10-28T18:16:15;19.70;53.80
27823;DHT22;29019;47.630;8.262;2022-10-28T18:20:16;19.70;53.80
27823;DHT22;29019;47.630;8.262;2022-10-28T18:24:16;19.70;53.80
27823;DHT22;29019;47.630;8.262;2022-10-28T18:28:17;19.70;53.80
27823;DHT22;29019;47.630;8.262;2022-10-28T18:32:22;19.70;53.80
27823;DHT22;29019;47.630;8.262;2022-10-28T18:36:23;19.70;53.80
27823;DHT22;29019;47.630;8.262;2022-10-28T18:40:23;19.70;53.80
27823;DHT22;29019;47.630;8.262;2022-10-28T18:44:24;19.70;53.80
27823;DHT22;29019;47.630;8.262;2022-10-28T18:48:30;19.70;53.80
27823;DHT22;29019;47.630;8.262;2022-10-28T18:52:31;19.70;53.80
27823;DHT22;29019;47.630;8.262;2022-10-28T18:56:31;19.70;53.90
27823;DHT22;29019;47.630;8.262;2022-10-28T19:00:33;19.70;53.90
27823;DHT22;29019;47.630;8.262;2022-10-28T19:04:35;19.70;53.90
27823;DHT22;29019;47.630;8.262;2022-10-28T19:08:35;19.70;53.90
27823;DHT22;29019;47.630;8.262;2022-10-28T19:12:36;19.70;53.90
27823;DHT22;29019;47.630;8.262;2022-10-28T19:16:37;19.70;53.90
27823;DHT22;29019;47.630;8.262;2022-10-28T19:20:37;19.70;53.90
27823;DHT22;29019;47.630;8.262;2022-10-28T19:24:37;19.70;53.90
27823;DHT22;29019;47.630;8.262;2022-10-28T19:28:38;19.70;53.80
27823;DHT22;29019;47.630;8.262;2022-10-28T19:32:39;19.70;53.80
27823;DHT22;29019;47.630;8.262;2022-10-28T19:36:40;19.70;53.80
27823;DHT22;29019;47.630;8.262;2022-10-28T19:40:40;19.70;53.80
27823;DHT22;29019;47.630;8.262;2022-10-28T19:44:40;19.70;53.80
27823;DHT22;29019;47.630;8.262;2022-10-28T19:48:42;19.70;53.80
27823;DHT22;29019;47.630;8.262;2022-10-28T19:52:42;19.70;53.90
27823;DHT22;29019;47.630;8.262;2022-10-28T19:56:43;19.70;53.90
27823;DHT22;29019;47.630;8.262;2022-10-28T20:00:44;19.60;53.80
27823;DHT22;29019;47.630;8.262;2022-10-28T20:04:44;19.70;53.90
27823;DHT22;29019;47.630;8.262;2022-10-28T20:08:48;19.70;53.90
27823;DHT22;29019;47.630;8.262;2022-10-28T20:12:48;19.70;53.90
27823;DHT22;29019;47.630;8.262;2022-10-28T20:16:49;19.60;53.80
27823;DHT22;29019;47.630;8.262;2022-10-28T20:20:49;19.70;53.90
27823;DHT22;29019;47.630;8.262;2022-10-28T20:24:50;19.60;53.80
27823;DHT22;29019;47.630;8.262;2022-10-28T20:28:50;19.70;53.80
27823;DHT22;29019;47.630;8.262;2022-10-28T20:32:51;19.70;53.90
27823;DHT22;29019;47.630;8.262;2022-10-28T20:36:51;19.70;53.80
27823;DHT22;29019;47.630;8.262;2022-10-28T20:40:53;19.70;53.80
27823;DHT22;29019;47.630;8.262;2022-10-28T20:44:54;19.70;53.80
27823;DHT22;29019;47.630;8.262;2022-10-28T20:48:54;19.70;53.80
27823;DHT22;29019;47.630;8.262;2022-10-28T20:52:55;19.60;53.80
27823;DHT22;29019;47.630;8.262;2022-10-28T20:56:56;19.60;53.90
27823;DHT22;29019;47.630;8.262;2022-10-28T21:01:03;19.60;53.80
27823;DHT22;29019;47.630;8.262;2022-10-28T21:05:04;19.60;53.90
27823;DHT22;29019;47.630;8.262;2022-10-28T21:09:05;19.60;53.80
27823;DHT22;29019;47.630;8.262;2022-10-28T21:13:06;19.60;53.90
27823;DHT22;29019;47.630;8.262;2022-10-28T21:17:06;19.60;53.80
27823;DHT22;29019;47.630;8.262;2022-10-28T21:21:07;19.60;53.80
27823;DHT22;29019;47.630;8.262;2022-10-28T21:25:07;19.60;53.80
27823;DHT22;29019;47.630;8.262;2022-10-28T21:29:08;19.60;53.80
27823;DHT22;29019;47.630;8.262;2022-10-28T21:33:08;19.60;53.70
27823;DHT22;29019;47.630;8.262;2022-10-28T21:37:10;19.70;53.80
27823;DHT22;29019;47.630;8.262;2022-10-28T21:41:15;19.60;53.70
27823;DHT22;29019;47.630;8.262;2022-10-28T21:45:15;19.60;53.80
27823;DHT22;29019;47.630;8.262;2022-10-28T21:49:17;19.60;53.70
27823;DHT22;29019;47.630;8.262;2022-10-28T21:53:17;19.60;53.70
27823;DHT22;29019;47.630;8.262;2022-10-28T21:57:18;19.60;53.70
27823;DHT22;29019;47.630;8.262;2022-10-28T22:01:19;19.60;53.70
27823;DHT22;29019;47.630;8.262;2022-10-28T22:05:20;19.70;53.70
27823;DHT22;29019;47.630;8.262;2022-10-28T22:09:20;19.60;53.70
27823;DHT22;29019;47.630;8.262;2022-10-28T22:13:21;19.60;53.70
27823;DHT22;29019;47.630;8.262;2022-10-28T22:17:21;19.60;53.70
27823;DHT22;29019;47.630;8.262;2022-10-28T22:21:23;19.60;53.70
27823;DHT22;29019;47.630;8.262;2022-10-28T22:25:23;19.60;53.70
27823;DHT22;29019;47.630;8.262;2022-10-28T22:29:24;19.60;53.70
27823;DHT22;29019;47.630;8.262;2022-10-28T22:33:24;19.60;53.70
27823;DHT22;29019;47.630;8.262;2022-10-28T22:37:25;19.60;53.80
27823;DHT22;29019;47.630;8.262;2022-10-28T22:41:26;19.60;53.70
27823;DHT22;29019;47.630;8.262;2022-10-28T22:45:27;19.60;53.70
27823;DHT22;29019;47.630;8.262;2022-10-28T22:49:27;19.60;53.70
27823;DHT22;29019;47.630;8.262;2022-10-28T22:53:28;19.60;53.70
27823;DHT22;29019;47.630;8.262;2022-10-28T22:57:29;19.60;53.80
27823;DHT22;29019;47.630;8.262;2022-10-28T23:01:29;19.60;53.80
27823;DHT22;29019;47.630;8.262;2022-10-28T23:05:29;19.60;53.70
27823;DHT22;29019;47.630;8.262;2022-10-28T23:09:30;19.60;53.70
27823;DHT22;29019;47.630;8.262;2022-10-28T23:13:30;19.60;53.80
27823;DHT22;29019;47.630;8.262;2022-10-28T23:17:31;19.60;53.80
27823;DHT22;29019;47.630;8.262;2022-10-28T23:21:31;19.60;53.80
27823;DHT22;29019;47.630;8.262;2022-10-28T23:25:32;19.60;53.80
27823;DHT22;29019;47.630;8.262;2022-10-28T23:29:32;19.50;53.70
27823;DHT22;29019;47.630;8.262;2022-10-28T23:33:33;19.60;53.80
27823;DHT22;29019;47.630;8.262;2022-10-28T23:37:33;19.50;53.80
27823;DHT22;29019;47.630;8.262;2022-10-28T23:41:34;19.50;53.80
27823;DHT22;29019;47.630;8.262;2022-10-28T23:45:34;19.50;53.80
27823;DHT22;29019;47.630;8.262;2022-10-28T23:49:35;19.50;53.80
27823;DHT22;29019;47.630;8.262;2022-10-28T23:53:35;19.50;53.70
27823;DHT22;29019;47.630;8.262;2022-10-28T23:57:36;19.50;53.80
